Terminal Aerodrome Forecast
Issued by NWS

Current Version | Previous Version | Text Only | Print | Product List | Glossary On
Versions: 1 2 3 4 5 6 7 8 9 10 11 12 13
000
FTUS46 KPDT 170522
TAFALW
TAF
KALW 170522Z 1706/1806 14007KT P6SM SKC
     FM171600 21011KT P6SM BKN200
     FM172000 24018G28KT 6SM BLDU BKN080
     FM180400 22010KT P6SM SCT080=

USA.gov is the U.S. government's official web portal to all federal, state and local government web resources and services.